Time;durP1;ratioP1;P1;durP2;ratioP2;P2;SDS_P1;SDS_P2;PMS_P1;PMS_P2;Temp;Humidity;BMP_temperature;BMP_pressure;BME280_temperature;BME280_humidity;BME280_pressure;Samples;Min_cycle;Max_cycle;Signal;HPM_P1;HPM_P2
2023/12/20 00:01:41;;;;;;;19.65;10.75;;;7.10;99.90;;;;;;4989166;28;20417;-49
2023/12/20 00:04:07;;;;;;;17.42;9.93;;;7.10;99.90;;;;;;4987200;28;20046;-50
2023/12/20 00:06:33;;;;;;;23.80;12.18;;;7.10;99.90;;;;;;4986904;28;20037;-49
2023/12/20 00:08:58;;;;;;;18.90;10.20;;;7.10;99.90;;;;;;4983350;28;20037;-50
2023/12/20 00:11:24;;;;;;;22.48;11.30;;;7.10;99.90;;;;;;4983786;28;20023;-50
2023/12/20 00:13:50;;;;;;;17.85;10.20;;;7.10;99.90;;;;;;4985481;28;20022;-49
2023/12/20 00:16:16;;;;;;;18.15;10.20;;;7.10;99.90;;;;;;4982770;28;20498;-48
2023/12/20 00:18:41;;;;;;;20.02;10.63;;;7.10;99.90;;;;;;4983936;28;20032;-49
2023/12/20 00:21:07;;;;;;;18.20;9.95;;;7.10;99.90;;;;;;4985841;28;21793;-47
2023/12/20 00:23:32;;;;;;;21.02;10.30;;;7.10;99.90;;;;;;4987168;28;20416;-49
2023/12/20 00:25:58;;;;;;;22.20;12.05;;;7.10;99.90;;;;;;4991264;28;20030;-50
2023/12/20 00:28:24;;;;;;;21.15;11.07;;;7.10;99.90;;;;;;4985441;28;20121;-50
2023/12/20 00:30:49;;;;;;;17.20;10.40;;;7.10;99.90;;;;;;4982368;28;20038;-50
2023/12/20 00:33:15;;;;;;;15.50;9.38;;;7.10;99.90;;;;;;4984454;28;20129;-49
2023/12/20 00:35:41;;;;;;;19.27;9.35;;;7.10;99.90;;;;;;4947644;28;20034;-55
2023/12/20 00:38:08;;;;;;;18.95;9.77;;;7.10;99.90;;;;;;4981874;28;20082;-47
2023/12/20 00:40:34;;;;;;;16.98;10.25;;;7.10;99.90;;;;;;4969488;28;20038;-52
2023/12/20 00:42:59;;;;;;;19.35;10.68;;;7.10;99.90;;;;;;4985248;28;20376;-51
2023/12/20 00:45:25;;;;;;;16.73;8.98;;;7.10;99.90;;;;;;4978407;28;20039;-48
2023/12/20 00:47:50;;;;;;;21.45;10.63;;;7.10;99.90;;;;;;4978982;28;20042;-50
2023/12/20 00:50:16;;;;;;;15.55;8.88;;;7.10;99.90;;;;;;4987142;28;20026;-52
2023/12/20 00:52:42;;;;;;;15.90;8.27;;;7.10;99.90;;;;;;4979938;28;20030;-47
2023/12/20 00:55:07;;;;;;;14.75;8.00;;;7.10;99.90;;;;;;4983747;28;20026;-47
2023/12/20 00:57:34;;;;;;;12.60;7.45;;;7.10;99.90;;;;;;4986445;28;22945;-48
2023/12/20 00:59:59;;;;;;;11.32;6.35;;;7.10;99.90;;;;;;4988241;28;20038;-53
2023/12/20 01:02:25;;;;;;;10.32;5.13;;;7.10;99.90;;;;;;4982292;28;20041;-49
2023/12/20 01:04:51;;;;;;;8.93;4.43;;;7.10;99.90;;;;;;4986238;28;20064;-53
2023/12/20 01:07:16;;;;;;;5.85;3.63;;;7.10;99.90;;;;;;4988206;28;20129;-50
2023/12/20 01:09:42;;;;;;;8.30;4.63;;;7.00;99.90;;;;;;4989102;28;20073;-51
2023/12/20 01:12:07;;;;;;;7.90;3.97;;;7.00;99.90;;;;;;4984125;28;20034;-47
2023/12/20 01:14:33;;;;;;;9.98;4.13;;;7.00;99.90;;;;;;4986848;28;20109;-52
2023/12/20 01:16:59;;;;;;;7.68;4.47;;;7.00;99.90;;;;;;4980772;28;20038;-53
2023/12/20 01:19:25;;;;;;;11.23;5.10;;;6.90;99.90;;;;;;4982497;28;20508;-49
2023/12/20 01:21:50;;;;;;;9.85;5.38;;;6.90;99.90;;;;;;4981935;28;20038;-53
2023/12/20 01:24:16;;;;;;;12.65;7.07;;;6.90;99.90;;;;;;4983114;28;20507;-57
2023/12/20 01:26:42;;;;;;;11.73;7.05;;;6.90;99.90;;;;;;4986257;28;20029;-53
2023/12/20 01:29:07;;;;;;;15.27;8.23;;;6.90;99.90;;;;;;4991396;28;20030;-48
2023/12/20 01:31:33;;;;;;;13.50;8.43;;;6.90;99.90;;;;;;4977332;28;20030;-47
2023/12/20 01:33:58;;;;;;;19.60;8.98;;;6.80;99.90;;;;;;4978130;28;20374;-47
2023/12/20 01:36:24;;;;;;;14.82;8.35;;;6.80;99.90;;;;;;4983782;28;20026;-49
2023/12/20 01:38:50;;;;;;;16.17;8.70;;;6.80;99.90;;;;;;4976109;28;20045;-54
2023/12/20 01:41:15;;;;;;;17.63;9.13;;;6.80;99.90;;;;;;4980790;28;20538;-49
2023/12/20 01:43:41;;;;;;;17.70;9.25;;;6.80;99.90;;;;;;4984984;28;20038;-48
2023/12/20 01:46:07;;;;;;;16.27;8.15;;;6.80;99.90;;;;;;4985953;28;20026;-51
2023/12/20 01:48:33;;;;;;;12.85;7.75;;;6.80;99.90;;;;;;4983320;28;20037;-48
2023/12/20 01:51:00;;;;;;;13.95;7.47;;;6.80;99.90;;;;;;4977770;28;20027;-55
2023/12/20 01:53:27;;;;;;;13.43;6.88;;;6.90;99.90;;;;;;4984554;28;20041;-51
2023/12/20 01:55:56;;;;;;;19.42;8.02;;;6.80;99.90;;;;;;4979367;28;20022;-52
2023/12/20 01:58:22;;;;;;;15.68;6.40;;;6.80;99.90;;;;;;4983624;28;20034;-54
2023/12/20 02:00:48;;;;;;;16.17;7.13;;;6.80;99.90;;;;;;4983334;28;20041;-49
2023/12/20 02:03:14;;;;;;;15.15;5.95;;;6.80;99.90;;;;;;4987503;28;20428;-48
2023/12/20 02:05:40;;;;;;;20.75;6.85;;;6.80;99.90;;;;;;4991334;28;20022;-48
2023/12/20 02:08:06;;;;;;;19.63;7.82;;;6.80;99.90;;;;;;4994463;28;20038;-49
2023/12/20 02:10:32;;;;;;;13.73;7.22;;;6.80;99.90;;;;;;4993365;28;20113;-48
2023/12/20 02:12:58;;;;;;;11.95;6.95;;;6.80;99.90;;;;;;4990910;28;20121;-48
2023/12/20 02:15:24;;;;;;;17.80;7.03;;;6.80;99.90;;;;;;4985853;28;20057;-51
2023/12/20 02:17:50;;;;;;;20.80;6.75;;;6.80;99.90;;;;;;4986068;28;20122;-51
2023/12/20 02:20:16;;;;;;;20.75;7.20;;;6.70;99.90;;;;;;4987108;28;20114;-51
2023/12/20 02:22:41;;;;;;;15.70;7.65;;;6.70;99.90;;;;;;4980579;28;20092;-50
2023/12/20 02:25:07;;;;;;;15.35;8.23;;;6.70;99.90;;;;;;4977587;28;20041;-47
2023/12/20 02:27:34;;;;;;;19.65;9.07;;;6.70;99.90;;;;;;4979396;28;20149;-49
2023/12/20 02:29:59;;;;;;;16.30;8.38;;;6.60;99.90;;;;;;4983249;28;20053;-49
2023/12/20 02:32:28;;;;;;;22.60;8.90;;;6.60;99.90;;;;;;4980582;28;20034;-48
2023/12/20 02:34:55;;;;;;;23.35;10.25;;;6.60;99.90;;;;;;4980303;28;20421;-49
2023/12/20 02:37:21;;;;;;;27.77;9.05;;;6.50;99.90;;;;;;4979511;28;20030;-54
2023/12/20 02:39:46;;;;;;;19.30;9.13;;;6.50;99.90;;;;;;4975575;28;20869;-52
2023/12/20 02:42:12;;;;;;;20.15;9.45;;;6.40;99.90;;;;;;4982454;28;20414;-47
2023/12/20 02:44:38;;;;;;;20.52;9.23;;;6.40;99.90;;;;;;4977453;28;20034;-48
2023/12/20 02:47:03;;;;;;;19.92;9.20;;;6.30;99.90;;;;;;4980852;28;20038;-48
2023/12/20 02:49:29;;;;;;;21.73;8.50;;;6.30;99.90;;;;;;4974856;28;20113;-50
2023/12/20 02:51:55;;;;;;;16.23;8.50;;;6.20;99.90;;;;;;4976193;28;20084;-47
2023/12/20 02:54:21;;;;;;;20.83;8.05;;;6.20;99.90;;;;;;4976682;28;20030;-51
2023/12/20 02:56:47;;;;;;;15.43;6.80;;;6.20;99.90;;;;;;4980569;28;20035;-50
2023/12/20 02:59:13;;;;;;;16.38;6.97;;;6.10;99.90;;;;;;4961930;28;20496;-52
2023/12/20 03:01:44;;;;;;;18.95;6.82;;;6.10;99.90;;;;;;4976890;28;20045;-48
2023/12/20 03:04:10;;;;;;;23.75;5.97;;;6.00;99.90;;;;;;4984764;28;20034;-52
2023/12/20 03:06:35;;;;;;;15.32;6.28;;;5.90;99.90;;;;;;4982631;28;20042;-56
2023/12/20 03:09:01;;;;;;;24.27;6.47;;;5.90;99.90;;;;;;4981133;28;20030;-50
2023/12/20 03:11:28;;;;;;;25.38;6.47;;;5.80;99.90;;;;;;4979106;28;20054;-48
2023/12/20 03:13:53;;;;;;;17.58;6.47;;;5.80;99.90;;;;;;4980206;28;20109;-57
2023/12/20 03:16:19;;;;;;;16.83;5.25;;;5.80;99.90;;;;;;4975334;28;20133;-48
2023/12/20 03:18:45;;;;;;;16.10;6.20;;;5.70;99.90;;;;;;4990480;28;20046;-49
2023/12/20 03:21:10;;;;;;;15.30;5.78;;;5.80;99.90;;;;;;4972389;28;20022;-51
2023/12/20 03:23:36;;;;;;;13.63;5.07;;;5.80;99.90;;;;;;4989857;28;20125;-48
2023/12/20 03:26:02;;;;;;;17.40;6.90;;;5.80;99.90;;;;;;4989106;28;20105;-50
2023/12/20 03:28:28;;;;;;;16.42;5.07;;;5.70;99.90;;;;;;4990114;28;20058;-47
2023/12/20 03:30:53;;;;;;;10.93;4.43;;;5.80;99.90;;;;;;4988252;28;20031;-50
2023/12/20 03:33:19;;;;;;;24.35;4.22;;;5.80;99.90;;;;;;4992037;28;20103;-56
2023/12/20 03:35:45;;;;;;;7.35;3.05;;;5.80;99.90;;;;;;4992766;28;20022;-52
2023/12/20 03:38:10;;;;;;;23.83;3.30;;;5.70;99.90;;;;;;4989428;28;20037;-48
2023/12/20 03:40:36;;;;;;;16.70;3.92;;;5.80;99.90;;;;;;4988057;28;20077;-49
2023/12/20 03:43:02;;;;;;;17.35;3.28;;;5.70;99.90;;;;;;4992469;28;20030;-50
2023/12/20 03:45:27;;;;;;;15.77;3.63;;;5.70;99.90;;;;;;4989046;28;20519;-51
2023/12/20 03:47:55;;;;;;;6.47;2.47;;;5.70;99.90;;;;;;4990222;28;20026;-53
2023/12/20 03:50:23;;;;;;;13.40;2.38;;;5.70;99.90;;;;;;4988353;28;20380;-47
2023/12/20 03:52:49;;;;;;;9.65;3.20;;;5.80;99.90;;;;;;4991515;28;20046;-48
2023/12/20 03:55:15;;;;;;;8.13;2.83;;;5.70;99.90;;;;;;4988917;28;20054;-51
2023/12/20 03:57:41;;;;;;;17.25;2.97;;;5.80;99.90;;;;;;4986566;28;20046;-50
2023/12/20 04:00:10;;;;;;;10.65;2.97;;;5.80;99.90;;;;;;4988565;28;20065;-49
2023/12/20 04:02:40;;;;;;;10.18;2.45;;;5.80;99.90;;;;;;4981281;28;20027;-52
2023/12/20 04:05:07;;;;;;;27.95;2.65;;;5.80;99.90;;;;;;4981024;28;20023;-48
2023/12/20 04:07:32;;;;;;;13.07;3.40;;;5.80;99.90;;;;;;4988610;28;20074;-56
2023/12/20 04:09:58;;;;;;;6.07;3.25;;;5.70;99.90;;;;;;4980641;28;20057;-57
2023/12/20 04:12:24;;;;;;;17.85;3.92;;;5.70;99.90;;;;;;4982958;28;20485;-56
2023/12/20 04:14:50;;;;;;;10.90;2.85;;;5.70;99.90;;;;;;4988399;28;20536;-48
2023/12/20 04:17:16;;;;;;;20.92;3.75;;;5.70;99.90;;;;;;4984456;28;20493;-54
2023/12/20 04:19:42;;;;;;;18.15;4.63;;;5.70;99.90;;;;;;4966983;28;20031;-49
2023/12/20 04:22:08;;;;;;;20.15;3.92;;;5.70;99.90;;;;;;4981024;28;20076;-50
2023/12/20 04:24:34;;;;;;;13.35;3.17;;;5.70;99.90;;;;;;4979595;28;20062;-50
2023/12/20 04:26:59;;;;;;;19.50;5.07;;;5.70;99.90;;;;;;4978386;28;20090;-51
2023/12/20 04:29:25;;;;;;;13.93;4.15;;;5.70;99.90;;;;;;4976681;28;20023;-54
2023/12/20 04:31:54;;;;;;;22.02;4.82;;;5.70;99.90;;;;;;4964495;28;20030;-47
2023/12/20 04:34:20;;;;;;;14.13;4.70;;;5.70;99.90;;;;;;4980910;28;20050;-54
2023/12/20 04:36:46;;;;;;;16.60;4.32;;;5.70;99.90;;;;;;4981136;28;20677;-52
2023/12/20 04:39:13;;;;;;;14.57;4.15;;;5.70;99.90;;;;;;4986943;28;20030;-52
2023/12/20 04:41:38;;;;;;;20.00;8.70;;;5.70;99.90;;;;;;4990252;28;20501;-49
2023/12/20 04:44:04;;;;;;;13.48;6.20;;;5.70;99.90;;;;;;4989359;28;20030;-53
2023/12/20 04:46:30;;;;;;;18.48;6.97;;;5.70;99.90;;;;;;4990930;28;20515;-51
2023/12/20 04:48:55;;;;;;;23.13;6.15;;;5.70;99.90;;;;;;4987071;28;20057;-48
2023/12/20 04:51:21;;;;;;;15.43;3.10;;;5.70;99.90;;;;;;4973327;28;20657;-51
2023/12/20 04:53:47;;;;;;;19.92;4.95;;;5.70;99.90;;;;;;4988997;28;20022;-54
2023/12/20 04:56:12;;;;;;;20.63;4.60;;;5.70;99.90;;;;;;4987301;28;20073;-56
2023/12/20 04:58:38;;;;;;;13.25;4.78;;;5.70;99.90;;;;;;4987691;28;20061;-50
2023/12/20 05:01:06;;;;;;;21.35;3.53;;;5.70;99.90;;;;;;4978502;28;20042;-50
2023/12/20 05:03:32;;;;;;;19.30;3.55;;;5.70;99.90;;;;;;4991666;28;20518;-50
2023/12/20 05:05:58;;;;;;;20.35;4.60;;;5.70;99.90;;;;;;4970078;28;20066;-50
2023/12/20 05:08:23;;;;;;;20.88;5.00;;;5.70;99.90;;;;;;4989466;28;20484;-50
2023/12/20 05:10:49;;;;;;;14.80;3.58;;;5.70;99.90;;;;;;4985076;28;20042;-51
2023/12/20 05:13:15;;;;;;;19.40;3.40;;;5.70;99.90;;;;;;4972878;28;20023;-47
2023/12/20 05:15:41;;;;;;;19.58;3.88;;;5.70;99.90;;;;;;4986181;28;20058;-50
2023/12/20 05:18:06;;;;;;;15.30;4.35;;;5.70;99.90;;;;;;4961816;28;20138;-50
2023/12/20 05:20:32;;;;;;;15.52;3.33;;;5.70;99.90;;;;;;4990011;28;20515;-50
2023/12/20 05:22:58;;;;;;;23.92;4.13;;;5.70;99.90;;;;;;4990428;28;20093;-49
2023/12/20 05:25:23;;;;;;;15.10;3.63;;;5.70;99.90;;;;;;4980955;28;20481;-50
2023/12/20 05:27:49;;;;;;;21.17;3.83;;;5.70;99.90;;;;;;4986117;28;20034;-48
2023/12/20 05:30:15;;;;;;;20.15;4.10;;;5.70;99.90;;;;;;4986297;28;20121;-48
2023/12/20 05:32:40;;;;;;;13.82;3.40;;;5.70;99.90;;;;;;4984731;28;20101;-52
2023/12/20 05:35:07;;;;;;;14.68;3.63;;;5.70;99.90;;;;;;4990953;28;20021;-49
2023/12/20 05:37:32;;;;;;;25.02;3.53;;;5.70;99.90;;;;;;4981389;28;20392;-48
2023/12/20 05:39:58;;;;;;;18.70;3.65;;;5.70;99.90;;;;;;4981425;28;20027;-48
2023/12/20 05:42:24;;;;;;;16.77;4.53;;;5.70;99.90;;;;;;4991247;28;20475;-50
2023/12/20 05:44:49;;;;;;;17.95;4.10;;;5.70;99.90;;;;;;4983871;28;20077;-49
2023/12/20 05:47:15;;;;;;;20.20;4.68;;;5.70;99.90;;;;;;4981660;28;20058;-51
2023/12/20 05:49:41;;;;;;;21.08;3.88;;;5.70;99.90;;;;;;4987726;28;20059;-49
2023/12/20 05:52:06;;;;;;;19.17;3.80;;;5.70;99.90;;;;;;4986125;28;20036;-52
2023/12/20 05:54:32;;;;;;;27.48;4.75;;;5.70;99.90;;;;;;4988469;28;20030;-51
2023/12/20 05:56:58;;;;;;;16.27;3.75;;;5.70;99.90;;;;;;4990359;28;20057;-50
2023/12/20 05:59:23;;;;;;;20.70;4.90;;;5.70;99.90;;;;;;4984946;28;20088;-50
2023/12/20 06:01:49;;;;;;;12.10;3.55;;;5.60;99.90;;;;;;4986491;28;20034;-49
2023/12/20 06:04:15;;;;;;;21.13;4.35;;;5.60;99.90;;;;;;4973668;28;20023;-49
2023/12/20 06:06:42;;;;;;;20.05;4.18;;;5.60;99.90;;;;;;4988821;28;20088;-50
2023/12/20 06:09:08;;;;;;;15.27;3.50;;;5.70;99.90;;;;;;4988039;28;20083;-51
2023/12/20 06:11:33;;;;;;;21.33;4.00;;;5.60;99.90;;;;;;4987725;28;20018;-52
2023/12/20 06:13:59;;;;;;;16.90;4.55;;;5.60;99.90;;;;;;4989932;28;20023;-48
2023/12/20 06:16:24;;;;;;;15.15;4.10;;;5.60;99.90;;;;;;4989846;28;20034;-51
2023/12/20 06:18:50;;;;;;;17.05;5.43;;;5.50;99.90;;;;;;4973801;28;20496;-50
2023/12/20 06:21:16;;;;;;;21.00;4.85;;;5.50;99.90;;;;;;4988911;28;20461;-52
2023/12/20 06:23:42;;;;;;;19.38;4.05;;;5.50;99.90;;;;;;4988587;28;20034;-49
2023/12/20 06:26:07;;;;;;;19.60;4.30;;;5.50;99.90;;;;;;4988906;28;20034;-49
2023/12/20 06:28:33;;;;;;;16.15;4.47;;;5.50;99.90;;;;;;4989816;28;20041;-49
2023/12/20 06:31:00;;;;;;;15.55;3.67;;;5.50;99.90;;;;;;4987249;28;20079;-53
2023/12/20 06:33:26;;;;;;;23.10;3.90;;;5.50;99.90;;;;;;4983493;28;20426;-50
2023/12/20 06:35:52;;;;;;;13.30;3.28;;;5.50;99.90;;;;;;4984314;28;20110;-50
2023/12/20 06:38:20;;;;;;;15.25;3.40;;;5.50;99.90;;;;;;4990066;28;20089;-52
2023/12/20 06:40:46;;;;;;;21.42;4.90;;;5.50;99.90;;;;;;4986520;28;20068;-50
2023/12/20 06:43:13;;;;;;;18.15;4.32;;;5.50;99.90;;;;;;4987321;28;20672;-51
2023/12/20 06:45:39;;;;;;;22.73;4.20;;;5.50;99.90;;;;;;4993585;28;20097;-53
2023/12/20 06:48:05;;;;;;;17.13;4.43;;;5.50;99.90;;;;;;4992692;28;20023;-50
2023/12/20 06:50:31;;;;;;;17.25;5.03;;;5.60;99.90;;;;;;4993965;28;20119;-49
2023/12/20 06:52:56;;;;;;;16.50;4.47;;;5.60;99.90;;;;;;4987819;28;20057;-51
2023/12/20 06:55:22;;;;;;;29.05;6.68;;;5.60;99.90;;;;;;4993461;28;20030;-51
2023/12/20 06:57:48;;;;;;;26.42;7.75;;;5.60;99.90;;;;;;4988100;28;20030;-50
2023/12/20 07:00:15;;;;;;;36.60;6.63;;;5.60;99.90;;;;;;4987200;28;20022;-51
2023/12/20 07:02:40;;;;;;;21.20;5.80;;;5.60;99.90;;;;;;4988379;28;20049;-51
2023/12/20 07:05:06;;;;;;;19.58;6.25;;;5.60;99.90;;;;;;4991214;28;20023;-51
2023/12/20 07:07:32;;;;;;;23.70;6.60;;;5.60;99.90;;;;;;4989983;28;20665;-51
2023/12/20 07:09:58;;;;;;;22.95;6.43;;;5.60;99.90;;;;;;4985810;28;20089;-51
2023/12/20 07:12:23;;;;;;;21.40;5.45;;;5.60;99.90;;;;;;4990471;28;20061;-50
2023/12/20 07:14:49;;;;;;;27.10;4.60;;;5.60;99.90;;;;;;4991392;28;20034;-52
2023/12/20 07:17:15;;;;;;;28.98;5.95;;;5.60;99.90;;;;;;4987096;28;20041;-52
2023/12/20 07:19:41;;;;;;;13.98;5.95;;;5.60;99.90;;;;;;4986973;28;20034;-52
2023/12/20 07:22:07;;;;;;;13.35;3.90;;;5.60;99.90;;;;;;4990351;28;20018;-52
2023/12/20 07:24:33;;;;;;;25.13;5.88;;;5.50;99.90;;;;;;4990434;28;20387;-51
2023/12/20 07:27:00;;;;;;;22.75;3.78;;;5.50;99.90;;;;;;4992863;28;20030;-49
2023/12/20 07:29:26;;;;;;;23.85;4.80;;;5.60;99.90;;;;;;4974178;28;20508;-52
2023/12/20 07:31:53;;;;;;;17.45;5.18;;;5.60;99.90;;;;;;4991687;28;20018;-52
2023/12/20 07:34:20;;;;;;;21.17;5.13;;;5.60;99.90;;;;;;4991805;28;20057;-49
2023/12/20 07:36:46;;;;;;;25.02;4.28;;;5.60;99.90;;;;;;4974762;28;20022;-51
2023/12/20 07:39:11;;;;;;;18.05;3.67;;;5.60;99.90;;;;;;4993805;28;20479;-51
2023/12/20 07:41:37;;;;;;;24.13;4.78;;;5.60;99.90;;;;;;4987073;28;20105;-49
2023/12/20 07:44:04;;;;;;;21.55;3.90;;;5.60;99.90;;;;;;4987802;28;20054;-53
2023/12/20 07:46:29;;;;;;;13.73;3.85;;;5.60;99.90;;;;;;4992188;28;20520;-52
2023/12/20 07:48:55;;;;;;;16.58;3.58;;;5.60;99.90;;;;;;4987697;28;20050;-51
2023/12/20 07:51:21;;;;;;;21.42;4.22;;;5.70;99.90;;;;;;4990684;28;20042;-49
2023/12/20 07:53:46;;;;;;;11.98;3.60;;;5.60;99.90;;;;;;4986335;28;20026;-50
2023/12/20 07:56:16;;;;;;;13.43;3.60;;;5.70;99.90;;;;;;4988253;28;20408;-52
2023/12/20 07:58:42;;;;;;;6.45;3.22;;;5.70;99.90;;;;;;4987923;28;20541;-52
2023/12/20 08:01:08;;;;;;;15.77;4.63;;;5.70;99.90;;;;;;4987158;28;20060;-51
2023/12/20 08:03:34;;;;;;;12.23;4.05;;;5.70;99.90;;;;;;4985115;28;20061;-49
2023/12/20 08:06:00;;;;;;;17.52;3.75;;;5.70;99.90;;;;;;4988713;28;20090;-52
2023/12/20 08:08:26;;;;;;;23.70;4.18;;;5.70;99.90;;;;;;4984643;28;20035;-51
2023/12/20 08:10:51;;;;;;;11.73;3.65;;;5.70;99.90;;;;;;4985382;28;20031;-53
2023/12/20 08:13:17;;;;;;;23.27;4.60;;;5.80;99.90;;;;;;4985937;28;20033;-53
2023/12/20 08:15:42;;;;;;;17.42;4.43;;;5.80;99.90;;;;;;4985639;28;20072;-49
2023/12/20 08:18:08;;;;;;;20.88;3.88;;;5.80;99.90;;;;;;4985080;28;20090;-51
2023/12/20 08:20:33;;;;;;;16.80;3.85;;;5.80;99.90;;;;;;4992537;28;20109;-51
2023/12/20 08:22:59;;;;;;;22.33;4.55;;;5.80;99.90;;;;;;4990158;28;20395;-51
2023/12/20 08:25:25;;;;;;;22.52;5.13;;;5.80;99.90;;;;;;4992575;28;20096;-53
2023/12/20 08:27:50;;;;;;;18.17;3.80;;;5.80;99.90;;;;;;4989517;28;20023;-49
2023/12/20 08:30:20;;;;;;;15.63;3.45;;;5.80;99.90;;;;;;4992337;28;20026;-51
2023/12/20 08:32:46;;;;;;;17.08;3.95;;;5.80;99.90;;;;;;4992580;28;20374;-51
2023/12/20 08:35:11;;;;;;;16.92;3.60;;;5.80;99.90;;;;;;4990867;28;20037;-51
2023/12/20 08:37:37;;;;;;;24.33;4.45;;;5.80;99.90;;;;;;4988889;28;20037;-52
2023/12/20 08:40:03;;;;;;;16.95;4.20;;;5.80;99.90;;;;;;4992057;28;20026;-53
2023/12/20 08:42:31;;;;;;;22.10;3.67;;;5.80;99.90;;;;;;4990711;28;20175;-52
2023/12/20 08:44:58;;;;;;;25.60;3.78;;;5.80;99.90;;;;;;4989760;28;20144;-51
2023/12/20 08:47:24;;;;;;;14.15;3.53;;;5.90;99.90;;;;;;4991148;28;20024;-52
2023/12/20 08:49:49;;;;;;;10.10;3.47;;;5.90;99.90;;;;;;4989384;28;20377;-52
2023/12/20 08:52:15;;;;;;;23.88;3.95;;;5.80;99.90;;;;;;4989046;28;20033;-52
2023/12/20 08:54:42;;;;;;;15.75;3.40;;;5.90;99.90;;;;;;4984105;28;20054;-52
2023/12/20 08:57:07;;;;;;;12.82;3.05;;;5.90;99.90;;;;;;4991531;28;20030;-50
2023/12/20 08:59:33;;;;;;;26.95;3.80;;;5.90;99.90;;;;;;4987523;28;20037;-51
2023/12/20 09:01:59;;;;;;;15.75;3.90;;;5.90;99.90;;;;;;4986282;28;20068;-52
2023/12/20 09:04:25;;;;;;;13.10;3.63;;;5.90;99.90;;;;;;4987886;28;20436;-50
2023/12/20 09:06:50;;;;;;;25.55;4.72;;;5.90;99.90;;;;;;4989798;28;20026;-51
2023/12/20 09:09:16;;;;;;;11.30;3.30;;;5.90;99.90;;;;;;4990439;28;20085;-51
2023/12/20 09:11:42;;;;;;;21.33;3.60;;;5.90;99.90;;;;;;4990523;28;20030;-51
2023/12/20 09:14:07;;;;;;;17.02;3.78;;;5.90;99.90;;;;;;4990154;28;20037;-52
2023/12/20 09:16:33;;;;;;;11.60;4.07;;;5.90;99.90;;;;;;4991449;28;20026;-52
2023/12/20 09:18:59;;;;;;;13.35;3.63;;;5.90;99.90;;;;;;4985778;28;20034;-52
2023/12/20 09:21:24;;;;;;;15.75;4.10;;;5.90;99.90;;;;;;4986525;28;20041;-50
2023/12/20 09:23:50;;;;;;;12.05;3.63;;;5.90;99.90;;;;;;4980138;28;20041;-51
2023/12/20 09:26:15;;;;;;;20.15;5.00;;;6.00;99.90;;;;;;4994835;28;20033;-50
2023/12/20 09:28:41;;;;;;;15.13;4.00;;;6.00;99.90;;;;;;4986770;28;20109;-51
2023/12/20 09:31:07;;;;;;;21.80;4.50;;;6.00;99.90;;;;;;4985335;28;20033;-51
2023/12/20 09:33:33;;;;;;;23.95;4.32;;;6.00;99.90;;;;;;4971257;28;20026;-51
2023/12/20 09:35:59;;;;;;;16.05;4.32;;;5.90;99.90;;;;;;4991369;28;20105;-54
2023/12/20 09:38:25;;;;;;;21.80;3.90;;;6.00;99.90;;;;;;4990035;28;20653;-51
2023/12/20 09:40:50;;;;;;;13.45;3.88;;;6.00;99.90;;;;;;4986207;28;20030;-51
2023/12/20 09:43:19;;;;;;;14.68;3.53;;;5.90;99.90;;;;;;4985643;28;20030;-50
2023/12/20 09:45:47;;;;;;;19.30;5.25;;;6.00;99.90;;;;;;4991324;28;20510;-52
2023/12/20 09:48:16;;;;;;;18.00;4.00;;;5.90;99.90;;;;;;4986135;28;20037;-52
2023/12/20 09:50:42;;;;;;;17.23;3.63;;;5.90;99.90;;;;;;4986399;28;20109;-53
2023/12/20 09:53:15;;;;;;;16.25;4.35;;;5.90;99.90;;;;;;4989020;28;20110;-50
2023/12/20 09:55:41;;;;;;;15.45;4.38;;;6.00;99.90;;;;;;4990695;28;20061;-48
2023/12/20 09:58:08;;;;;;;21.90;5.47;;;6.00;99.90;;;;;;4988877;28;20027;-54
2023/12/20 10:00:35;;;;;;;19.33;4.35;;;6.00;99.90;;;;;;4990386;28;20548;-54
2023/12/20 10:03:01;;;;;;;15.85;4.13;;;6.10;99.90;;;;;;4989133;28;20085;-52
2023/12/20 10:05:31;;;;;;;15.73;3.50;;;6.00;99.90;;;;;;4988916;28;20042;-52
2023/12/20 10:07:58;;;;;;;9.93;3.97;;;6.10;99.90;;;;;;4987433;28;20027;-51
2023/12/20 10:10:24;;;;;;;12.38;3.35;;;6.10;99.90;;;;;;4988114;28;20026;-51
2023/12/20 10:13:07;;;;;;;18.17;4.03;;;6.20;99.90;;;;;;4984525;28;20033;-52
2023/12/20 10:15:36;;;;;;;13.30;4.37;;;6.10;99.90;;;;;;4986092;28;20031;-54
2023/12/20 10:18:03;;;;;;;11.07;3.33;;;6.20;99.90;;;;;;4984937;28;20050;-51
2023/12/20 10:20:29;;;;;;;14.70;3.72;;;6.20;99.90;;;;;;4986206;28;20078;-53
2023/12/20 10:22:56;;;;;;;13.85;3.03;;;6.20;99.90;;;;;;4992280;28;20507;-51
2023/12/20 10:25:22;;;;;;;11.55;3.25;;;6.20;99.90;;;;;;4993521;28;20097;-52
2023/12/20 10:27:49;;;;;;;12.65;3.03;;;6.20;99.90;;;;;;4994540;28;20089;-51
2023/12/20 10:30:14;;;;;;;12.82;2.75;;;6.20;99.90;;;;;;4998206;28;20034;-53
2023/12/20 10:32:43;;;;;;;16.02;2.88;;;6.10;99.90;;;;;;4991948;28;20037;-53
2023/12/20 10:35:09;;;;;;;18.65;3.42;;;6.10;99.90;;;;;;4986809;28;20519;-53
2023/12/20 10:37:37;;;;;;;14.15;3.30;;;6.20;99.90;;;;;;4976306;28;20033;-51
2023/12/20 10:40:05;;;;;;;15.18;4.18;;;6.10;99.90;;;;;;4994135;28;20369;-52
2023/12/20 10:42:33;;;;;;;19.33;2.88;;;6.10;99.90;;;;;;4988029;28;20492;-51
2023/12/20 10:45:00;;;;;;;24.02;4.53;;;6.20;99.90;;;;;;4994319;28;20125;-49
2023/12/20 10:47:26;;;;;;;9.63;2.97;;;6.10;99.90;;;;;;4974407;28;20525;-51
2023/12/20 10:49:53;;;;;;;18.50;3.70;;;6.20;99.90;;;;;;4990320;28;20053;-51
2023/12/20 10:52:22;;;;;;;22.17;4.20;;;6.20;99.90;;;;;;4974047;28;20030;-48
2023/12/20 10:54:48;;;;;;;17.38;4.40;;;6.20;99.90;;;;;;4990487;28;20082;-52
2023/12/20 10:57:16;;;;;;;15.07;3.28;;;6.30;99.90;;;;;;4976369;28;20026;-51
2023/12/20 10:59:45;;;;;;;15.20;3.78;;;6.20;99.90;;;;;;4994445;28;20042;-54
2023/12/20 11:02:11;;;;;;;18.73;5.63;;;6.20;99.90;;;;;;4993089;28;20030;-51
2023/12/20 11:04:41;;;;;;;16.98;3.97;;;6.30;99.90;;;;;;4990243;28;20041;-49
2023/12/20 11:07:23;;;;;;;26.00;5.18;;;6.30;99.90;;;;;;4990404;28;20037;-52
2023/12/20 11:10:15;;;;;;;21.05;2.80;;;6.30;99.90;;;;;;4984622;28;20548;-52
2023/12/20 11:12:53;;;;;;;13.25;3.00;;;6.30;99.90;;;;;;4991363;28;20026;-51
2023/12/20 11:15:19;;;;;;;15.07;3.20;;;6.30;99.90;;;;;;4988091;28;20032;-53
2023/12/20 11:17:48;;;;;;;12.25;2.95;;;6.30;99.90;;;;;;4993219;28;20404;-51
2023/12/20 11:20:14;;;;;;;21.02;3.47;;;6.40;99.90;;;;;;4991049;28;20015;-51
2023/12/20 11:22:52;;;;;;;10.95;2.53;;;6.40;99.90;;;;;;4992482;28;20420;-52
2023/12/20 11:25:18;;;;;;;14.52;3.20;;;6.40;99.90;;;;;;4990541;28;20077;-49
2023/12/20 11:27:44;;;;;;;13.77;3.20;;;6.40;99.90;;;;;;4991375;28;20485;-55
2023/12/20 11:30:11;;;;;;;8.63;2.95;;;6.40;99.90;;;;;;4985181;28;20105;-52
2023/12/20 11:32:37;;;;;;;9.75;2.60;;;6.40;99.90;;;;;;4987236;28;20101;-51
2023/12/20 11:35:09;;;;;;;17.15;3.65;;;6.40;99.90;;;;;;4993189;28;20026;-55
2023/12/20 11:37:42;;;;;;;24.92;4.18;;;6.40;99.90;;;;;;4989613;28;20524;-49
2023/12/20 11:40:14;;;;;;;12.75;3.00;;;6.40;99.90;;;;;;4990023;28;20030;-51
2023/12/20 11:42:41;;;;;;;12.77;2.42;;;6.50;99.90;;;;;;4986351;28;20062;-49
2023/12/20 11:45:11;;;;;;;11.38;2.50;;;6.40;99.90;;;;;;4995565;28;20780;-52
2023/12/20 11:47:36;;;;;;;24.83;5.13;;;6.50;99.90;;;;;;4986791;28;20030;-51
2023/12/20 11:50:03;;;;;;;14.68;2.38;;;6.40;99.90;;;;;;4989968;28;20109;-52
2023/12/20 11:52:29;;;;;;;7.70;2.85;;;6.50;99.90;;;;;;4973649;28;20049;-52
2023/12/20 11:54:56;;;;;;;18.33;3.10;;;6.50;99.90;;;;;;4990431;28;20054;-52
2023/12/20 11:57:22;;;;;;;26.88;2.70;;;6.50;99.90;;;;;;4992301;28;20026;-51
2023/12/20 11:59:48;;;;;;;9.38;2.22;;;6.50;99.90;;;;;;4989675;28;20069;-49
2023/12/20 12:02:14;;;;;;;11.00;2.80;;;6.50;99.90;;;;;;4984375;28;20084;-51
2023/12/20 12:04:41;;;;;;;7.07;1.80;;;6.50;99.90;;;;;;4987086;28;20042;-48
2023/12/20 12:07:07;;;;;;;10.98;2.08;;;6.50;99.90;;;;;;4984778;28;20030;-50
2023/12/20 12:09:33;;;;;;;15.48;2.92;;;6.50;99.90;;;;;;4985145;28;20489;-50
2023/12/20 12:11:59;;;;;;;12.40;2.33;;;6.50;99.90;;;;;;4983180;28;20026;-54
2023/12/20 12:14:25;;;;;;;17.63;2.97;;;6.50;99.90;;;;;;4990379;28;20030;-48
2023/12/20 12:16:53;;;;;;;10.80;3.55;;;6.50;99.90;;;;;;4986150;28;20026;-49
2023/12/20 12:19:26;;;;;;;15.35;4.32;;;6.50;99.90;;;;;;4986722;28;20034;-51
2023/12/20 12:22:07;;;;;;;11.88;2.80;;;6.50;99.90;;;;;;4983618;28;20097;-52
2023/12/20 12:24:32;;;;;;;17.63;2.50;;;6.60;99.90;;;;;;4990306;28;20042;-49
2023/12/20 12:26:58;;;;;;;11.48;3.10;;;6.60;99.90;;;;;;4990470;28;20532;-50
2023/12/20 12:29:26;;;;;;;11.05;2.97;;;6.60;99.90;;;;;;4991867;28;20030;-50
2023/12/20 12:31:52;;;;;;;19.13;4.50;;;6.60;99.90;;;;;;4989823;28;20072;-53
2023/12/20 12:34:18;;;;;;;11.82;3.10;;;6.60;99.90;;;;;;4987748;28;20061;-51
2023/12/20 12:36:44;;;;;;;18.15;2.97;;;6.60;99.90;;;;;;4993255;28;20030;-50
2023/12/20 12:39:15;;;;;;;13.18;3.20;;;6.60;99.90;;;;;;4986959;28;20077;-50
2023/12/20 12:41:40;;;;;;;12.88;3.53;;;6.60;99.90;;;;;;4987588;28;20033;-53
2023/12/20 12:44:06;;;;;;;11.93;2.80;;;6.50;99.90;;;;;;4986444;28;20396;-52